KRVF

UTC

Ruby Valley Field

Twin Bridges, Montana, United States

METAR - Current

KRVF 030315Z AUTO 03015G21KT 10SM OVC055 13/09 A3010 RMK AO2

Observed

Jun 03 03:15 UTC

Flight Rules

VFR

Wind

030° at 15 KTS
Gusting to 21 KTS

Visibility

10 SM

Clouds

  • Overcast at 5,500 ft AGL

Ceiling

Overcast at 5,500 ft AGL

Temperature

13°C=55°F

Dew Point

9°C=48°F

Humidity

77%

Altimeter

30.1 Hg

Pressure

1019.0 hPa

METAR - Previous

KRVF 030255Z AUTO 03016KT 10SM OVC050 13/09 A3009 RMK AO2

Observed

Jun 03 02:55 UTC

Flight Rules

VFR

Wind

030° at 16 KTS

Visibility

10 SM

Clouds

  • Overcast at 5,000 ft AGL

Ceiling

Overcast at 5,000 ft AGL

Temperature

13°C=55°F

Dew Point

9°C=48°F

Humidity

77%

Altimeter

30.09 Hg

Pressure

1019.0 hPa